Time;durP1;ratioP1;P1;durP2;ratioP2;P2;SDS_P1;SDS_P2;PMS_P1;PMS_P2;Temp;Humidity;BMP_temperature;BMP_pressure;BME280_temperature;BME280_humidity;BME280_pressure;Samples;Min_cycle;Max_cycle;Signal;HPM_P1;HPM_P2
2022/04/06 00:04:42;;;;;;;18.87;9.13;;;;;;;12.66;40.87;99362.19;10385093;28;20209;-82
2022/04/06 00:09:44;;;;;;;17.40;8.73;;;;;;;13.00;40.99;99356.50;10373241;28;20209;-82
2022/04/06 00:14:47;;;;;;;18.17;8.77;;;;;;;13.33;40.22;99347.94;10396665;28;20226;-82
2022/04/06 00:19:49;;;;;;;19.87;8.73;;;;;;;12.66;41.54;99341.50;10362144;28;20228;-81
2022/04/06 00:24:51;;;;;;;18.00;8.50;;;;;;;12.32;42.07;99344.31;10363810;28;20498;-85
2022/04/06 00:29:53;;;;;;;13.20;8.37;;;;;;;13.17;40.11;99336.03;10321444;28;20232;-81
2022/04/06 00:40:17;;;;;;;15.97;8.57;;;;;;;13.26;39.62;99325.16;10357021;28;20201;-82
2022/04/06 00:45:20;;;;;;;17.53;8.10;;;;;;;13.27;39.73;99330.44;10360191;28;20194;-82
2022/04/06 00:50:23;;;;;;;17.23;7.40;;;;;;;12.95;39.97;99334.97;10373261;28;20749;-82
2022/04/06 00:55:31;;;;;;;15.53;7.43;;;;;;;13.37;40.02;99323.22;10363996;28;20276;-82
2022/04/06 01:00:34;;;;;;;15.83;8.10;;;;;;;12.32;40.79;99326.50;10349176;28;20252;-82
2022/04/06 01:05:36;;;;;;;15.80;6.93;;;;;;;12.57;40.71;99313.44;10342522;28;20190;-82
2022/04/06 01:10:38;;;;;;;17.43;7.10;;;;;;;14.55;36.99;99296.41;10358122;28;20190;-84
2022/04/06 01:15:41;;;;;;;15.47;7.13;;;;;;;12.85;39.47;99318.63;10341538;28;20257;-88
2022/04/06 01:20:43;;;;;;;11.67;6.40;;;;;;;12.33;40.10;99305.44;10341513;28;20257;-81
2022/04/06 01:25:45;;;;;;;12.03;6.40;;;;;;;13.45;38.33;99307.91;10342949;28;20256;-82
2022/04/06 01:30:47;;;;;;;11.97;6.17;;;;;;;14.23;36.84;99297.09;10324106;28;20542;-81
2022/04/06 01:35:50;;;;;;;14.53;6.67;;;;;;;12.39;40.23;99301.09;10335246;28;20264;-87
2022/04/06 01:40:52;;;;;;;14.87;6.70;;;;;;;13.14;39.11;99297.06;10373408;28;20228;-81
2022/04/06 01:45:55;;;;;;;16.37;7.07;;;;;;;12.67;39.58;99297.78;10356597;28;20237;-83
2022/04/06 01:56:17;;;;;;;13.43;6.13;;;;;;;12.42;40.58;99289.81;10341031;28;20190;-83
2022/04/06 02:01:20;;;;;;;14.77;6.90;;;;;;;12.42;40.25;99300.31;10355887;28;20543;-82
2022/04/06 02:06:23;;;;;;;15.17;6.53;;;;;;;13.21;38.97;99282.94;10372556;28;20229;-88
2022/04/06 02:11:25;;;;;;;10.57;6.23;;;;;;;13.08;38.37;99281.63;10357058;28;20252;-88
2022/04/06 02:16:27;;;;;;;15.50;6.40;;;;;;;12.83;38.89;99281.31;10356147;28;20225;-88
2022/04/06 02:21:29;;;;;;;19.30;6.77;;;;;;;13.22;38.69;99276.03;10345386;28;20225;-88
2022/04/06 02:26:32;;;;;;;10.80;5.57;;;;;;;13.76;37.79;99272.44;10346868;28;20202;-89
2022/04/06 02:31:34;;;;;;;9.50;6.00;;;;;;;12.34;39.66;99276.72;10355846;28;20214;-89
2022/04/06 02:36:36;;;;;;;10.23;6.10;;;;;;;12.42;39.45;99269.16;10338721;28;20206;-89
2022/04/06 02:41:38;;;;;;;13.00;6.00;;;;;;;13.76;37.35;99265.94;10355350;28;20217;-90
2022/04/06 02:46:41;;;;;;;10.07;5.50;;;;;;;12.22;39.96;99262.00;10355254;28;20248;-87
2022/04/06 02:51:44;;;;;;;14.37;5.97;;;;;;;13.03;38.59;99262.09;10354812;28;20218;-88
2022/04/06 02:56:46;;;;;;;13.23;5.47;;;;;;;13.38;37.96;99256.72;10323023;28;20237;-88
2022/04/06 03:01:48;;;;;;;9.03;4.90;;;;;;;12.87;38.67;99260.34;10337823;28;20229;-87
2022/04/06 03:06:50;;;;;;;10.43;5.30;;;;;;;12.58;39.04;99247.03;10345715;28;20265;-89
2022/04/06 03:11:52;;;;;;;10.93;4.57;;;;;;;13.12;37.99;99254.88;10370262;28;20209;-83
2022/04/06 03:16:55;;;;;;;13.70;4.43;;;;;;;12.83;38.21;99250.13;10369680;28;20264;-82
2022/04/06 03:21:57;;;;;;;12.33;4.40;;;;;;;12.20;39.64;99256.72;10369381;28;20709;-84
2022/04/06 03:27:00;;;;;;;10.50;4.50;;;;;;;13.01;37.95;99253.16;10342465;28;20198;-81
2022/04/06 03:32:03;;;;;;;7.20;3.87;;;;;;;11.92;39.50;99247.81;10341105;28;20618;-82
2022/04/06 03:37:05;;;;;;;5.33;3.97;;;;;;;11.55;40.30;99244.84;10355843;28;20606;-82
2022/04/06 03:42:07;;;;;;;7.00;3.70;;;;;;;12.08;39.32;99237.09;10347486;28;20252;-82
2022/04/06 03:47:10;;;;;;;5.37;3.37;;;;;;;12.80;37.66;99240.41;10360152;28;20206;-83
2022/04/06 03:52:12;;;;;;;10.73;3.80;;;;;;;12.78;37.71;99228.63;10360124;28;20291;-83
2022/04/06 03:57:14;;;;;;;8.07;3.30;;;;;;;13.68;35.93;99230.19;10376590;28;20482;-82
2022/04/06 04:02:17;;;;;;;9.60;3.80;;;;;;;13.30;36.53;99229.50;10376533;28;20475;-82
2022/04/06 04:07:20;;;;;;;7.10;3.97;;;;;;;13.55;36.05;99221.16;10376378;28;20459;-83
2022/04/06 04:12:23;;;;;;;9.47;4.13;;;;;;;11.99;39.10;99231.75;10376278;28;20213;-83
2022/04/06 04:17:25;;;;;;;9.07;4.30;;;;;;;12.82;37.36;99229.44;10376248;28;20213;-84
2022/04/06 04:22:27;;;;;;;9.47;3.70;;;;;;;11.45;39.38;99233.00;10357594;28;20284;-83
2022/04/06 04:27:29;;;;;;;10.77;4.50;;;;;;;11.54;39.58;99226.25;10341173;28;20210;-83
2022/04/06 04:32:32;;;;;;;9.03;4.10;;;;;;;12.69;37.48;99225.28;10344023;28;20311;-83
2022/04/06 04:37:36;;;;;;;8.43;3.73;;;;;;;11.99;38.41;99214.75;10359555;28;20256;-82
2022/04/06 04:42:38;;;;;;;7.00;3.93;;;;;;;13.61;35.47;99211.88;10358138;28;20202;-82
2022/04/06 04:47:40;;;;;;;10.80;4.53;;;;;;;13.59;35.45;99217.13;10346799;28;20669;-88
2022/04/06 04:52:42;;;;;;;5.93;3.43;;;;;;;12.33;37.36;99211.94;10367224;28;20277;-86
2022/04/06 04:57:47;;;;;;;9.30;4.80;;;;;;;12.39;36.81;99216.88;10365501;28;20210;-85
2022/04/06 05:02:49;;;;;;;8.17;3.80;;;;;;;11.98;38.15;99213.09;10351946;28;20276;-86
2022/04/06 05:07:52;;;;;;;8.13;3.70;;;;;;;12.12;37.45;99206.84;10376665;28;20252;-82
2022/04/06 05:12:54;;;;;;;10.13;3.70;;;;;;;12.51;36.22;99198.78;10325326;28;20237;-88
2022/04/06 05:17:56;;;;;;;6.73;3.67;;;;;;;12.63;36.59;99206.19;10338431;28;20276;-84
2022/04/06 05:22:58;;;;;;;5.00;3.23;;;;;;;12.68;36.09;99205.84;10358844;28;20234;-83
2022/04/06 05:28:01;;;;;;;6.07;2.73;;;;;;;11.57;37.97;99208.50;10345092;28;20201;-89
2022/04/06 05:33:03;;;;;;;5.70;3.03;;;;;;;12.82;35.35;99209.59;10313084;28;20647;-83
2022/04/06 05:38:06;;;;;;;7.13;2.80;;;;;;;12.09;36.58;99213.28;10338472;28;20217;-83
2022/04/06 05:43:08;;;;;;;6.40;2.57;;;;;;;11.77;37.46;99212.84;10358752;28;20658;-90
2022/04/06 05:48:11;;;;;;;4.53;3.40;;;;;;;11.73;36.80;99201.47;10299992;28;20218;-88
2022/04/06 05:53:14;;;;;;;10.23;3.03;;;;;;;12.78;35.55;99210.78;10346593;28;20210;-90
2022/04/06 05:58:16;;;;;;;6.57;2.63;;;;;;;12.49;35.44;99199.16;10340429;28;20202;-90
2022/04/06 06:03:18;;;;;;;4.27;1.67;;;;;;;11.87;36.84;99206.50;10347431;28;20241;-86
2022/04/06 06:08:20;;;;;;;6.63;2.10;;;;;;;12.21;35.81;99207.34;10373685;28;20205;-91
2022/04/06 06:13:23;;;;;;;9.07;2.53;;;;;;;12.83;34.19;99204.75;10386011;28;20221;-86
2022/04/06 06:18:27;;;;;;;8.27;2.23;;;;;;;11.72;36.79;99204.66;10346020;28;20773;-87
2022/04/06 06:23:29;;;;;;;5.97;2.13;;;;;;;12.36;35.80;99205.50;10342852;28;20265;-86
2022/04/06 06:28:31;;;;;;;7.47;2.70;;;;;;;12.63;35.28;99201.31;10341735;28;20260;-92
2022/04/06 06:33:33;;;;;;;6.23;2.40;;;;;;;13.04;34.86;99198.47;10357725;28;20248;-90
2022/04/06 06:38:36;;;;;;;7.23;2.97;;;;;;;12.24;36.61;99205.75;10342411;28;20205;-90
2022/04/06 06:43:41;;;;;;;6.17;3.20;;;;;;;12.67;36.16;99188.00;10360700;28;20268;-91
2022/04/06 06:48:43;;;;;;;5.60;2.53;;;;;;;11.99;36.91;99186.41;10353272;28;20209;-90
2022/04/06 06:53:53;;;;;;;6.37;2.60;;;;;;;12.33;35.81;99180.75;10346908;28;20226;-86
2022/04/06 06:58:55;;;;;;;7.20;2.80;;;;;;;11.95;36.43;99188.38;10339836;28;20260;-89
2022/04/06 07:03:58;;;;;;;9.93;3.10;;;;;;;13.23;34.56;99181.19;10362206;28;20229;-91
2022/04/06 07:09:00;;;;;;;7.47;2.17;;;;;;;13.81;32.90;99177.50;10351605;28;20213;-91
2022/04/06 07:14:02;;;;;;;5.30;2.37;;;;;;;13.54;34.10;99186.28;10336384;28;20225;-90
2022/04/06 07:19:05;;;;;;;4.40;1.80;;;;;;;12.89;34.66;99178.50;10348843;28;20234;-91
2022/04/06 07:24:07;;;;;;;9.57;3.03;;;;;;;13.01;34.82;99173.72;10340557;28;20225;-90
2022/04/06 07:29:11;;;;;;;6.17;1.70;;;;;;;12.96;34.99;99171.25;10353841;28;20277;-91
2022/04/06 07:34:13;;;;;;;6.73;2.10;;;;;;;12.45;36.46;99161.44;10338824;28;20245;-91
2022/04/06 07:39:15;;;;;;;5.73;1.93;;;;;;;12.25;37.43;99147.88;10338811;28;20210;-90
2022/04/06 07:44:17;;;;;;;6.97;2.10;;;;;;;12.93;36.11;99155.84;10340215;28;20198;-90
2022/04/06 07:49:19;;;;;;;4.47;1.87;;;;;;;11.41;38.73;99155.72;10353719;28;20201;-84
2022/04/06 07:54:22;;;;;;;4.10;2.17;;;;;;;12.25;37.19;99160.03;10357015;28;20257;-82
2022/04/06 07:59:24;;;;;;;5.97;2.07;;;;;;;12.13;37.65;99149.78;10340197;28;20229;-87
2022/04/06 08:04:26;;;;;;;3.80;1.90;;;;;;;11.56;37.57;99153.91;10330806;28;20198;-88
2022/04/06 08:09:31;;;;;;;5.97;2.50;;;;;;;12.68;36.79;99160.47;10346072;28;20492;-86
2022/04/06 08:14:33;;;;;;;4.53;2.00;;;;;;;13.01;36.39;99168.88;10353318;28;20527;-82
2022/04/06 08:19:35;;;;;;;3.23;2.07;;;;;;;12.01;37.74;99158.53;10353846;28;20646;-83
2022/04/06 08:24:37;;;;;;;5.60;2.40;;;;;;;11.32;38.52;99163.69;10333111;28;20272;-81
2022/04/06 08:29:39;;;;;;;6.00;2.60;;;;;;;11.68;37.96;99156.50;10365437;28;20264;-83
2022/04/06 08:34:42;;;;;;;5.80;2.07;;;;;;;11.70;37.69;99161.78;10357764;28;20229;-82
2022/04/06 08:39:44;;;;;;;5.40;2.03;;;;;;;13.17;35.31;99148.72;10358000;28;20265;-85
2022/04/06 08:45:07;;;;;;;5.80;2.10;;;;;;;12.43;36.98;99154.56;10354011;28;20277;-82
2022/04/06 08:50:10;;;;;;;5.40;2.50;;;;;;;12.74;36.54;99151.19;10327577;28;20245;-82
2022/04/06 08:55:13;;;;;;;4.03;1.93;;;;;;;11.77;37.73;99144.88;10323897;28;20221;-82
2022/04/06 09:00:17;;;;;;;3.17;1.93;;;;;;;13.07;35.68;99141.78;10336416;28;20230;-82
2022/04/06 09:05:21;;;;;;;5.77;1.90;;;;;;;11.74;38.14;99154.16;10307721;28;20217;-83
2022/04/06 09:10:37;;;;;;;5.43;1.63;;;;;;;12.41;36.69;99139.97;10322712;28;20284;-82
2022/04/06 09:15:40;;;;;;;2.90;1.40;;;;;;;12.00;36.41;99134.22;10342480;28;20288;-82
2022/04/06 09:20:42;;;;;;;5.43;1.80;;;;;;;11.96;36.77;99143.88;10335746;28;20647;-86
2022/04/06 09:25:44;;;;;;;6.17;1.83;;;;;;;12.40;35.63;99132.66;10356287;28;20526;-82
2022/04/06 09:30:46;;;;;;;5.40;1.20;;;;;;;12.82;35.15;99130.19;10357477;28;20213;-83
2022/04/06 09:35:49;;;;;;;5.23;1.43;;;;;;;12.29;35.53;99121.22;10339342;28;20721;-86
2022/04/06 09:41:03;;;;;;;4.57;0.90;;;;;;;12.18;35.51;99121.09;10340636;28;20205;-82
2022/04/06 09:51:50;;;;;;;2.33;0.70;;;;;;;13.43;33.03;99107.94;10340191;28;20253;-83
2022/04/06 09:56:54;;;;;;;3.03;0.90;;;;;;;13.13;32.86;99119.50;10307730;28;20285;-84
2022/04/06 10:01:58;;;;;;;4.00;1.03;;;;;;;11.98;34.48;99122.47;10311952;28;20241;-83
2022/04/06 10:07:01;;;;;;;4.97;1.33;;;;;;;12.73;33.28;99126.88;10352853;28;20539;-83
2022/04/06 10:12:04;;;;;;;2.80;0.83;;;;;;;11.94;35.04;99110.28;10337418;28;20343;-87
2022/04/06 10:17:06;;;;;;;7.10;0.97;;;;;;;13.10;32.86;99121.09;10338269;28;20531;-84
2022/04/06 10:22:44;;;;;;;2.67;0.73;;;;;;;13.02;33.72;99118.63;10337064;28;20280;-82
2022/04/06 10:27:51;;;;;;;3.53;0.80;;;;;;;11.47;35.72;99125.91;10307435;28;20206;-87
2022/04/06 10:32:57;;;;;;;4.37;0.77;;;;;;;12.35;33.96;99118.84;10348813;28;20210;-91
2022/04/06 10:37:59;;;;;;;6.13;0.93;;;;;;;11.64;35.08;99113.19;10359931;28;20222;-82
2022/04/06 10:43:01;;;;;;;1.80;0.60;;;;;;;12.52;34.15;99109.69;10338133;28;20202;-83
2022/04/06 10:48:10;;;;;;;7.57;1.20;;;;;;;12.58;33.11;99105.28;10337296;28;20206;-84
2022/04/06 10:53:18;;;;;;;3.70;1.13;;;;;;;12.14;34.98;99097.59;10352380;28;20213;-83
2022/04/06 10:58:23;;;;;;;4.90;0.70;;;;;;;12.34;34.17;99103.03;10339076;28;20201;-86
2022/04/06 11:03:25;;;;;;;2.20;0.43;;;;;;;13.49;32.67;99077.91;10335607;28;20209;-83
2022/04/06 11:14:25;;;;;;;1.80;0.60;;;;;;;12.62;33.98;99074.13;10333316;28;20233;-83
2022/04/06 11:19:28;;;;;;;4.30;0.80;;;;;;;12.48;34.73;99089.81;10336958;28;20224;-83
2022/04/06 11:24:31;;;;;;;2.27;0.83;;;;;;;14.46;31.61;99075.00;10351617;28;20198;-84
2022/04/06 11:29:36;;;;;;;3.63;1.00;;;;;;;13.11;33.49;99073.69;10322151;28;20218;-83
2022/04/06 11:34:40;;;;;;;3.07;1.03;;;;;;;12.54;34.70;99082.59;10352269;28;20214;-82
2022/04/06 11:39:42;;;;;;;4.60;1.30;;;;;;;13.66;34.24;99057.34;10336336;28;20245;-83
2022/04/06 11:44:44;;;;;;;3.47;0.93;;;;;;;13.74;33.31;99061.81;10324638;28;20209;-85
2022/04/06 11:49:47;;;;;;;4.10;1.57;;;;;;;14.17;33.55;99065.59;10336961;28;20221;-82
2022/04/06 11:54:56;;;;;;;2.60;0.63;;;;;;;11.86;36.97;99077.44;10346338;28;20563;-83
2022/04/06 11:59:58;;;;;;;3.97;0.90;;;;;;;12.93;36.82;99065.06;10349649;28;20280;-84
2022/04/06 12:05:04;;;;;;;8.57;1.50;;;;;;;12.96;36.51;99064.25;10333204;28;20265;-82
2022/04/06 12:10:07;;;;;;;3.57;1.83;;;;;;;13.22;36.30;99049.00;10325483;28;20592;-83
2022/04/06 12:15:09;;;;;;;3.30;1.10;;;;;;;12.66;37.67;99055.94;10334122;28;20225;-83
2022/04/06 12:20:25;;;;;;;1.23;1.10;;;;;;;12.28;39.19;99054.41;10334551;28;20519;-83
2022/04/06 12:25:32;;;;;;;2.77;1.20;;;;;;;12.12;39.27;99048.19;10335955;28;20186;-84
2022/04/06 12:30:34;;;;;;;4.77;2.43;;;;;;;11.78;39.87;99038.91;10340556;28;20210;-84
2022/04/06 12:35:43;;;;;;;2.40;1.77;;;;;;;12.39;39.25;99034.66;10325430;28;20214;-84
2022/04/06 12:40:45;;;;;;;4.40;2.40;;;;;;;12.20;39.02;99033.69;10335816;28;20591;-82
2022/04/06 12:46:08;;;;;;;4.63;2.53;;;;;;;13.40;37.40;99010.16;10344405;28;20272;-89
2022/04/06 12:51:21;;;;;;;4.90;1.50;;;;;;;13.32;37.37;99008.53;10319628;28;20203;-83
2022/04/06 12:56:23;;;;;;;2.50;1.67;;;;;;;13.67;36.75;98995.69;10349885;28;20261;-84
2022/04/06 13:01:25;;;;;;;2.87;1.47;;;;;;;13.36;36.89;98986.63;10334232;28;20202;-84
2022/04/06 13:06:28;;;;;;;2.73;1.50;;;;;;;12.57;37.67;98987.41;10349624;28;20258;-83
2022/04/06 13:11:30;;;;;;;5.90;1.67;;;;;;;14.09;36.24;98978.69;10340872;28;20198;-83
2022/04/06 13:16:36;;;;;;;2.60;1.20;;;;;;;12.27;39.62;98986.78;10355341;28;20289;-84
2022/04/06 13:21:38;;;;;;;12.37;9.03;;;;;;;13.76;36.47;98976.22;10331034;28;20269;-83
2022/04/06 13:26:40;;;;;;;7.30;5.80;;;;;;;14.14;36.15;98968.94;10325140;28;20231;-82
2022/04/06 13:31:43;;;;;;;5.13;2.10;;;;;;;13.87;36.78;98960.00;10323361;28;20202;-83
2022/04/06 13:36:45;;;;;;;2.90;2.40;;;;;;;12.97;38.60;98957.28;10314956;28;20225;-85
2022/04/06 13:41:52;;;;;;;9.73;6.33;;;;;;;12.77;38.42;98953.91;10304192;28;20203;-82
2022/04/06 13:46:56;;;;;;;10.97;8.30;;;;;;;12.39;39.49;98956.13;10299162;28;20199;-84
2022/04/06 13:52:00;;;;;;;5.10;3.97;;;;;;;12.50;38.88;98940.00;10281303;28;20199;-84
2022/04/06 13:57:02;;;;;;;26.20;16.97;;;;;;;13.55;37.51;98926.66;10291066;28;20222;-84
2022/04/06 14:02:05;;;;;;;4.07;2.63;;;;;;;13.10;38.89;98916.00;10297385;28;20465;-84
2022/04/06 14:07:07;;;;;;;3.10;2.13;;;;;;;13.99;37.03;98894.25;10297699;28;20319;-82
2022/04/06 14:12:15;;;;;;;3.40;2.33;;;;;;;12.25;39.51;98895.69;10298453;28;20202;-84
2022/04/06 14:17:17;;;;;;;3.90;2.87;;;;;;;13.68;37.87;98889.38;10289959;28;20222;-80
2022/04/06 14:22:19;;;;;;;4.23;2.03;;;;;;;13.50;37.57;98872.28;10331093;28;20333;-82
2022/04/06 14:27:21;;;;;;;3.13;2.10;;;;;;;13.32;37.47;98862.97;10349762;28;20202;-90
2022/04/06 14:32:24;;;;;;;8.20;6.07;;;;;;;13.41;37.16;98855.66;10350631;28;20205;-77
2022/04/06 14:37:26;;;;;;;3.70;2.57;;;;;;;12.94;38.01;98850.31;10335715;28;20245;-83
2022/04/06 14:42:28;;;;;;;2.97;1.60;;;;;;;13.84;35.61;98852.88;10329486;28;20220;-82
2022/04/06 14:47:30;;;;;;;4.37;2.57;;;;;;;12.61;38.01;98838.00;10356408;28;20248;-86
2022/04/06 14:52:33;;;;;;;5.73;2.70;;;;;;;13.05;37.15;98817.91;10338510;28;20232;-82
2022/04/06 14:57:39;;;;;;;3.03;1.93;;;;;;;12.97;37.21;98810.56;10338402;28;20225;-81
2022/04/06 15:02:44;;;;;;;2.97;1.30;;;;;;;13.23;35.96;98795.22;10343559;28;20206;-84
2022/04/06 15:07:46;;;;;;;2.87;1.70;;;;;;;14.08;35.57;98806.56;10332312;28;20260;-83
2022/04/06 15:12:49;;;;;;;1.27;1.07;;;;;;;14.00;35.41;98799.25;10324406;28;20205;-83
2022/04/06 15:17:51;;;;;;;1.77;0.97;;;;;;;13.54;35.31;98794.44;10337845;28;20226;-83
2022/04/06 15:22:53;;;;;;;3.13;1.00;;;;;;;14.01;35.06;98792.34;10338848;28;20276;-81
2022/04/06 15:27:56;;;;;;;1.87;1.00;;;;;;;14.24;34.70;98794.75;10348106;28;20229;-83
2022/04/06 15:32:58;;;;;;;6.37;1.30;;;;;;;13.99;34.79;98797.63;10335420;28;20213;-84
2022/04/06 15:38:01;;;;;;;2.13;0.80;;;;;;;12.88;35.49;98796.78;10335828;28;20241;-82
2022/04/06 15:43:03;;;;;;;2.53;1.30;;;;;;;13.50;34.75;98782.25;10335736;28;20276;-82
2022/04/06 15:48:06;;;;;;;1.60;1.00;;;;;;;14.15;33.72;98774.47;10335797;28;20202;-82
2022/04/06 15:53:11;;;;;;;2.07;0.90;;;;;;;14.27;33.12;98752.09;10354366;28;20595;-82
2022/04/06 15:58:17;;;;;;;0.80;0.60;;;;;;;13.93;34.70;98748.97;10342241;28;20267;-88
2022/04/06 16:03:20;;;;;;;1.30;0.67;;;;;;;14.05;33.54;98747.69;10358474;28;20206;-82
2022/04/06 16:08:22;;;;;;;1.33;0.60;;;;;;;14.09;33.25;98742.81;10352836;28;20693;-83
2022/04/06 16:13:25;;;;;;;3.40;1.33;;;;;;;13.87;33.96;98739.22;10337987;28;20232;-82
2022/04/06 16:18:27;;;;;;;2.13;0.77;;;;;;;13.95;33.70;98732.31;10334706;28;20570;-83
2022/04/06 16:23:30;;;;;;;1.20;0.60;;;;;;;13.95;33.55;98720.16;10335159;28;20284;-84
2022/04/06 16:28:32;;;;;;;1.73;0.77;;;;;;;13.48;34.20;98727.09;10335472;28;20202;-82
2022/04/06 16:33:39;;;;;;;2.63;0.93;;;;;;;13.46;33.94;98713.34;10334620;28;20189;-83
2022/04/06 16:38:42;;;;;;;1.37;0.80;;;;;;;14.50;32.84;98705.31;10350966;28;21005;-86
2022/04/06 16:43:44;;;;;;;5.40;0.60;;;;;;;15.40;31.22;98697.75;10314164;28;20214;-85
2022/04/06 16:48:46;;;;;;;3.10;0.77;;;;;;;13.84;33.27;98693.81;10337466;28;20646;-84
2022/04/06 16:53:48;;;;;;;1.23;0.87;;;;;;;13.10;34.98;98697.53;10337788;28;20210;-86
2022/04/06 16:58:51;;;;;;;2.37;0.93;;;;;;;15.09;31.82;98688.25;10339459;28;20511;-83
2022/04/06 17:03:53;;;;;;;3.03;1.10;;;;;;;14.18;33.18;98685.53;10341167;28;20502;-84
2022/04/06 17:08:56;;;;;;;1.97;0.70;;;;;;;13.94;33.86;98676.72;10358016;28;20280;-88
2022/04/06 17:13:58;;;;;;;2.30;1.00;;;;;;;15.12;31.87;98665.47;10341532;28;20357;-86
2022/04/06 17:19:00;;;;;;;2.30;0.90;;;;;;;13.16;34.20;98665.50;10361152;28;20280;-84
2022/04/06 17:24:03;;;;;;;2.00;0.97;;;;;;;14.19;32.90;98668.09;10344266;28;20213;-85
2022/04/06 17:29:05;;;;;;;1.73;1.00;;;;;;;14.68;32.20;98666.19;10349625;28;20221;-85
2022/04/06 17:34:07;;;;;;;6.47;4.60;;;;;;;14.78;31.95;98661.63;10327560;28;20233;-80
2022/04/06 17:39:10;;;;;;;3.67;1.47;;;;;;;14.29;33.16;98658.69;10346433;28;20230;-83
2022/04/06 17:44:13;;;;;;;1.10;0.80;;;;;;;15.00;31.97;98646.84;10354300;28;20202;-83
2022/04/06 17:49:15;;;;;;;6.43;4.10;;;;;;;13.85;33.30;98647.13;10336441;28;20261;-84
2022/04/06 17:54:21;;;;;;;3.93;1.50;;;;;;;14.62;31.69;98648.78;10341306;28;20213;-85
2022/04/06 17:59:23;;;;;;;5.20;2.23;;;;;;;13.90;33.21;98641.81;10336712;28;20673;-84
2022/04/06 18:04:27;;;;;;;2.83;2.10;;;;;;;13.51;34.19;98639.09;10343617;28;20197;-83
2022/04/06 18:09:29;;;;;;;1.90;1.50;;;;;;;13.78;33.86;98645.13;10349638;28;20230;-84
2022/04/06 18:14:31;;;;;;;4.07;1.63;;;;;;;13.95;33.81;98634.91;10338297;28;20225;-84
2022/04/06 18:19:33;;;;;;;2.87;1.53;;;;;;;14.16;34.77;98649.00;10347548;28;20226;-84
2022/04/06 18:24:39;;;;;;;8.17;2.40;;;;;;;13.47;36.15;98651.69;10336715;28;20213;-85
2022/04/06 18:29:41;;;;;;;6.67;1.80;;;;;;;14.29;35.75;98647.31;10339996;28;20214;-85
2022/04/06 18:34:44;;;;;;;5.17;3.13;;;;;;;12.86;37.98;98648.91;10330722;28;20619;-84
2022/04/06 18:39:46;;;;;;;5.27;2.07;;;;;;;14.54;35.96;98646.38;10354642;28;20709;-83
2022/04/06 18:44:48;;;;;;;4.00;2.63;;;;;;;14.86;35.15;98629.09;10337517;28;20503;-85
2022/04/06 18:49:50;;;;;;;6.60;2.97;;;;;;;13.88;36.87;98621.53;10338298;28;20249;-85
2022/04/06 18:54:55;;;;;;;3.87;2.23;;;;;;;13.50;38.01;98614.75;10337200;28;20209;-86
2022/04/06 18:59:57;;;;;;;5.63;2.70;;;;;;;13.33;38.09;98609.94;10337711;28;20217;-83
2022/04/06 19:05:02;;;;;;;7.03;2.60;;;;;;;12.55;39.04;98607.97;10338022;28;20201;-84
2022/04/06 19:10:04;;;;;;;3.63;2.77;;;;;;;13.41;36.81;98590.84;10321529;28;20240;-84
2022/04/06 19:15:07;;;;;;;4.97;2.53;;;;;;;13.10;38.14;98592.53;10336548;28;20570;-87
2022/04/06 19:20:10;;;;;;;7.03;2.80;;;;;;;12.87;38.16;98590.97;10335821;28;20280;-83
2022/04/06 19:25:13;;;;;;;2.87;2.57;;;;;;;13.33;37.53;98590.09;10332709;28;20295;-83
2022/04/06 19:30:15;;;;;;;7.40;3.13;;;;;;;13.50;37.04;98591.22;10347521;28;20234;-84
2022/04/06 19:35:18;;;;;;;3.60;2.70;;;;;;;13.65;36.82;98583.50;10355833;28;20202;-85
2022/04/06 19:40:20;;;;;;;5.83;3.53;;;;;;;13.05;38.13;98584.47;10335255;28;20500;-82
2022/04/06 19:45:22;;;;;;;5.63;2.77;;;;;;;12.80;38.48;98584.47;10327031;28;20202;-82
2022/04/06 19:50:24;;;;;;;3.73;2.87;;;;;;;12.95;38.11;98594.59;10347066;28;20210;-83
2022/04/06 19:55:26;;;;;;;4.50;3.23;;;;;;;12.40;39.26;98588.50;10321386;28;20337;-84
2022/04/06 20:00:28;;;;;;;6.37;3.23;;;;;;;12.63;39.63;98588.09;10303945;28;20265;-84
2022/04/06 20:05:31;;;;;;;9.00;6.73;;;;;;;12.57;39.93;98567.84;10319332;28;20243;-83
2022/04/06 20:10:33;;;;;;;6.50;4.10;;;;;;;12.47;39.92;98565.81;10335836;28;20194;-82
2022/04/06 20:15:41;;;;;;;8.07;3.97;;;;;;;12.78;39.13;98564.22;10335592;28;20503;-83
2022/04/06 20:20:44;;;;;;;5.33;2.93;;;;;;;12.17;40.32;98564.16;10343472;28;20293;-83
2022/04/06 20:25:46;;;;;;;5.43;3.80;;;;;;;12.96;38.87;98556.50;10342643;28;20206;-84
2022/04/06 20:30:49;;;;;;;5.37;3.20;;;;;;;13.43;38.44;98555.16;10358221;28;20206;-82
2022/04/06 20:36:01;;;;;;;7.37;4.90;;;;;;;13.45;38.12;98558.41;10348420;28;20681;-82
2022/04/06 20:41:04;;;;;;;5.67;3.80;;;;;;;12.83;39.10;98552.44;10358172;28;20252;-83
2022/04/06 20:46:07;;;;;;;4.40;3.33;;;;;;;12.94;39.23;98532.63;10315939;28;20207;-83
2022/04/06 20:51:10;;;;;;;4.20;3.20;;;;;;;13.59;37.84;98524.28;10347524;28;20257;-83
2022/04/06 20:56:13;;;;;;;5.47;3.27;;;;;;;12.68;39.51;98531.00;10358115;28;20485;-83
2022/04/06 21:01:15;;;;;;;7.67;3.73;;;;;;;13.09;38.73;98512.28;10357929;28;20260;-83
2022/04/06 21:06:18;;;;;;;5.03;3.27;;;;;;;12.28;40.03;98510.38;10342110;28;20654;-84
2022/04/06 21:11:20;;;;;;;3.83;3.37;;;;;;;13.03;38.58;98507.47;10326043;28;20265;-83
2022/04/06 21:16:22;;;;;;;6.93;3.40;;;;;;;13.01;38.70;98504.22;10335797;28;20221;-84
2022/04/06 21:21:24;;;;;;;5.37;3.27;;;;;;;13.81;37.08;98490.91;10332497;28;20350;-84
2022/04/06 21:26:26;;;;;;;7.30;3.30;;;;;;;13.85;36.62;98485.22;10357621;28;20190;-85
2022/04/06 21:31:29;;;;;;;3.70;2.77;;;;;;;12.33;39.09;98486.47;10354455;28;20269;-83
2022/04/06 21:36:31;;;;;;;4.17;2.93;;;;;;;13.73;37.00;98472.28;10331750;28;20273;-83
2022/04/06 21:41:34;;;;;;;6.47;2.60;;;;;;;12.99;37.18;98466.94;10324515;28;20222;-86
2022/04/06 21:46:36;;;;;;;3.87;2.13;;;;;;;12.50;38.66;98477.16;10356591;28;20492;-85
2022/04/06 21:51:38;;;;;;;2.87;2.43;;;;;;;12.39;38.41;98462.19;10341534;28;20249;-84
2022/04/06 21:56:41;;;;;;;4.37;2.60;;;;;;;14.49;34.88;98451.44;10339684;28;20237;-85
2022/04/06 22:01:43;;;;;;;4.63;2.67;;;;;;;13.09;36.83;98455.56;10339758;28;20209;-84
2022/04/06 22:06:46;;;;;;;4.97;2.07;;;;;;;12.82;37.15;98455.19;10355547;28;20198;-83
2022/04/06 22:11:48;;;;;;;4.93;1.93;;;;;;;13.48;36.04;98449.69;10323522;28;20499;-83
2022/04/06 22:16:50;;;;;;;2.93;2.20;;;;;;;14.71;34.24;98429.28;10322892;28;20623;-84
2022/04/06 22:21:53;;;;;;;4.83;2.40;;;;;;;13.26;36.25;98442.53;10339222;28;20229;-83
2022/04/06 22:26:55;;;;;;;3.27;2.73;;;;;;;12.72;37.19;98446.72;10338538;28;20202;-84
2022/04/06 22:31:57;;;;;;;3.53;2.40;;;;;;;13.77;35.20;98416.28;10338910;28;20262;-83
2022/04/06 22:36:59;;;;;;;2.10;1.90;;;;;;;13.24;36.68;98413.75;10353946;28;20261;-84
2022/04/06 22:42:02;;;;;;;2.23;1.93;;;;;;;13.65;35.52;98405.41;10338327;28;20531;-84
2022/04/06 22:47:04;;;;;;;2.10;1.83;;;;;;;13.10;37.00;98393.94;10354123;28;20484;-83
2022/04/06 22:52:06;;;;;;;2.67;1.83;;;;;;;13.47;35.50;98385.63;10339214;28;20253;-85
2022/04/06 22:57:08;;;;;;;4.27;1.70;;;;;;;14.01;35.09;98363.34;10337804;28;20218;-83
2022/04/06 23:02:11;;;;;;;2.67;1.83;;;;;;;12.39;37.95;98369.50;10333475;28;20237;-83
2022/04/06 23:07:13;;;;;;;2.13;1.67;;;;;;;13.19;36.83;98360.28;10334699;28;20206;-82
2022/04/06 23:12:15;;;;;;;2.67;1.77;;;;;;;12.95;37.75;98376.19;10337362;28;20642;-82
2022/04/06 23:17:17;;;;;;;2.80;1.90;;;;;;;12.59;39.13;98372.66;10336915;28;20257;-84
2022/04/06 23:22:20;;;;;;;4.50;2.53;;;;;;;12.38;40.95;98370.69;10353026;28;20517;-83
2022/04/06 23:27:22;;;;;;;2.57;1.70;;;;;;;11.49;42.94;98365.06;10336876;28;20214;-84
2022/04/06 23:32:24;;;;;;;2.00;1.20;;;;;;;11.39;42.41;98337.53;10336617;28;20194;-84
2022/04/06 23:37:26;;;;;;;1.80;1.20;;;;;;;13.19;39.61;98315.69;10304179;28;20217;-84
2022/04/06 23:42:28;;;;;;;1.80;1.50;;;;;;;13.20;39.81;98308.78;10320946;28;20245;-84
2022/04/06 23:47:30;;;;;;;1.70;1.40;;;;;;;11.49;43.52;98297.16;10335429;28;20599;-85
2022/04/06 23:52:33;;;;;;;2.30;2.07;;;;;;;11.96;42.61;98292.25;10334490;28;20197;-82